Time;durP1;ratioP1;P1;durP2;ratioP2;P2;SDS_P1;SDS_P2;PMS_P1;PMS_P2;Temp;Humidity;BMP_temperature;BMP_pressure;BME280_temperature;BME280_humidity;BME280_pressure;Samples;Min_cycle;Max_cycle;Signal;HPM_P1;HPM_P2
2021/09/18 00:01:21;;;;;;;9.18;7.35;;;;;;;;;;6262431;28;20016;-85
2021/09/18 00:04:21;;;;;;;9.07;6.43;;;11.80;99.90;;;;;;6278114;28;20422;-86
2021/09/18 00:07:22;;;;;;;10.45;6.70;;;11.90;99.90;;;;;;6261993;28;20049;-86
2021/09/18 00:10:23;;;;;;;8.20;7.10;;;;;;;;;;6261545;28;20033;-86
2021/09/18 00:13:24;;;;;;;7.75;6.95;;;;;;;;;;6278753;28;20123;-86
2021/09/18 00:16:25;;;;;;;8.45;6.40;;;;;;;;;;6295175;28;20028;-84
2021/09/18 00:19:26;;;;;;;8.68;6.05;;;;;;;;;;6278398;28;20449;-84
2021/09/18 00:22:26;;;;;;;8.73;6.70;;;12.10;99.90;;;;;;6295235;28;20098;-84
2021/09/18 00:25:27;;;;;;;7.47;6.68;;;;;;;;;;6261454;28;20123;-88
2021/09/18 00:28:28;;;;;;;10.20;6.60;;;12.00;99.90;;;;;;6278769;28;20040;-88
2021/09/18 00:31:28;;;;;;;7.53;6.78;;;12.00;99.90;;;;;;6263837;28;20052;-86
2021/09/18 00:34:29;;;;;;;7.55;6.80;;;;;;;;;;6265154;28;20033;-85
2021/09/18 00:37:30;;;;;;;6.20;5.60;;;;;;;;;;6284149;28;20024;-85
2021/09/18 00:40:31;;;;;;;6.97;6.38;;;;;;;;;;6297651;28;20052;-90
2021/09/18 00:43:32;;;;;;;8.63;5.88;;;;;;;;;;6278652;28;20033;-88
2021/09/18 00:46:33;;;;;;;7.63;6.07;;;;;;;;;;6295175;28;20062;-86
2021/09/18 00:49:34;;;;;;;6.53;5.90;;;;;;;;;;6279559;28;20029;-85
2021/09/18 00:52:35;;;;;;;7.88;6.80;;;12.30;99.90;;;;;;6280997;28;20043;-89
2021/09/18 00:55:36;;;;;;;6.70;6.10;;;12.10;99.90;;;;;;6266371;28;20067;-84
2021/09/18 00:58:37;;;;;;;7.60;6.80;;;;;;;;;;6265108;28;20056;-86
2021/09/18 01:01:37;;;;;;;8.30;6.47;;;12.40;99.90;;;;;;6299097;28;20025;-86
2021/09/18 01:04:38;;;;;;;8.00;6.50;;;;;;;;;;6273087;28;20474;-86
2021/09/18 01:07:39;;;;;;;8.52;6.22;;;12.30;99.90;;;;;;6280548;28;20063;-85
2021/09/18 01:10:40;;;;;;;9.18;6.57;;;;;;;;;;6264621;28;20024;-90
2021/09/18 01:13:41;;;;;;;7.53;5.80;;;12.50;99.90;;;;;;6280669;28;20085;-86
2021/09/18 01:16:42;;;;;;;8.15;6.68;;;;;;;;;;6263638;28;20021;-86
2021/09/18 01:19:43;;;;;;;9.57;6.63;;;;;;;;;;6282309;28;20043;-85
2021/09/18 01:22:44;;;;;;;7.63;6.85;;;12.20;99.90;;;;;;6280288;28;20035;-89
2021/09/18 01:25:44;;;;;;;7.93;6.80;;;;;;;;;;6252053;28;20036;-86
2021/09/18 01:28:46;;;;;;;8.02;6.57;;;;;;;;;;6281695;28;20032;-86
2021/09/18 01:31:47;;;;;;;6.97;6.28;;;12.40;99.90;;;;;;6278805;28;20063;-86
2021/09/18 01:34:49;;;;;;;7.13;6.32;;;12.20;99.90;;;;;;6247069;28;20514;-85
2021/09/18 01:37:50;;;;;;;7.40;6.00;;;;;;;;;;6278870;28;20063;-87
2021/09/18 01:40:50;;;;;;;7.10;6.40;;;12.40;99.90;;;;;;6281291;28;20077;-87
2021/09/18 01:43:51;;;;;;;8.93;6.30;;;;;;;;;;6261567;28;20029;-92
2021/09/18 01:46:52;;;;;;;6.68;6.05;;;;;;;;;;6278971;28;20024;-89
2021/09/18 01:49:53;;;;;;;7.30;5.72;;;12.10;99.90;;;;;;6279450;28;20051;-88
2021/09/18 01:53:04;;;;;;;6.68;6.07;;;12.10;99.90;;;;;;6263573;28;20041;-87
2021/09/18 01:56:05;;;;;;;6.95;6.03;;;;;;;;;;6260989;28;20540;-91
2021/09/18 01:59:06;;;;;;;7.15;6.45;;;;;;;;;;6261115;28;20028;-89
2021/09/18 02:02:07;;;;;;;7.20;6.50;;;;;;;;;;6292877;28;20025;-90
2021/09/18 02:05:09;;;;;;;6.82;6.13;;;;;;;;;;6276658;28;20035;-88
2021/09/18 02:08:10;;;;;;;7.50;6.28;;;;;;;;;;6276211;28;20049;-85
2021/09/18 02:11:11;;;;;;;7.15;6.28;;;;;;;;;;6281201;28;20027;-88
2021/09/18 02:14:11;;;;;;;8.70;6.00;;;11.80;99.90;;;;;;6282383;28;20029;-91
2021/09/18 02:17:12;;;;;;;9.45;6.40;;;;;;;;;;6260371;28;20052;-90
2021/09/18 02:20:15;;;;;;;6.90;6.20;;;11.90;99.90;;;;;;6277723;28;20035;-88
2021/09/18 02:23:15;;;;;;;;;;;11.90;99.90;;;;;;6261389;28;20020;-89
2021/09/18 02:26:16;;;;;;;7.03;5.72;;;;;;;;;;6276967;28;19900;-90
2021/09/18 02:29:17;;;;;;;7.07;5.57;;;;;;;;;;6276377;28;20043;-90
2021/09/18 02:32:18;;;;;;;6.93;6.05;;;;;;;;;;6276300;28;20025;-87
2021/09/18 02:35:20;;;;;;;9.32;6.70;;;;;;;;;;6276495;28;20028;-87
2021/09/18 02:38:21;;;;;;;8.82;6.60;;;;;;;;;;6259463;28;20028;-89
2021/09/18 02:41:22;;;;;;;7.03;6.10;;;;;;;;;;6276460;28;20055;-90
2021/09/18 02:44:23;;;;;;;8.45;6.05;;;;;;;;;;6275824;28;20043;-90
2021/09/18 02:47:24;;;;;;;8.77;6.30;;;;;;;;;;6276160;28;20024;-91
2021/09/18 02:50:25;;;;;;;7.97;5.97;;;;;;;;;;6276679;28;20021;-87
2021/09/18 02:53:26;;;;;;;6.50;5.90;;;;;;;;;;6292594;28;20040;-88
2021/09/18 02:56:27;;;;;;;7.57;6.78;;;11.60;99.90;;;;;;6276238;28;20028;-87
2021/09/18 02:59:27;;;;;;;8.07;6.70;;;11.40;99.90;;;;;;6259126;28;20119;-88
2021/09/18 03:02:28;;;;;;;7.00;6.30;;;11.40;99.90;;;;;;6275865;28;20033;-88
2021/09/18 03:05:29;;;;;;;6.60;6.00;;;11.60;99.90;;;;;;6259372;28;20462;-87
2021/09/18 03:08:30;;;;;;;7.82;6.53;;;;;;;;;;6258890;28;20080;-86
2021/09/18 03:11:30;;;;;;;8.10;6.13;;;11.50;99.90;;;;;;6276091;28;20365;-90
2021/09/18 03:14:31;;;;;;;7.70;6.00;;;;;;;;;;6259157;28;20028;-89
2021/09/18 03:17:32;;;;;;;8.32;6.28;;;;;;;;;;6275708;28;20025;-89
2021/09/18 03:20:33;;;;;;;7.63;6.65;;;11.50;99.90;;;;;;6276059;28;20074;-88
2021/09/18 03:23:34;;;;;;;7.70;6.90;;;;;;;;;;6259712;28;20032;-87
2021/09/18 03:26:34;;;;;;;10.73;6.85;;;11.40;99.90;;;;;;6259797;28;20037;-88
2021/09/18 03:29:35;;;;;;;7.47;6.10;;;;;;;;;;6281328;28;20032;-88
2021/09/18 03:32:36;;;;;;;6.50;5.70;;;;;;;;;;6282684;28;20031;-87
2021/09/18 03:35:37;;;;;;;8.95;6.70;;;;;;;;;;6280636;28;20040;-88
2021/09/18 03:38:38;;;;;;;11.18;6.55;;;;;;;;;;6278706;28;20051;-87
2021/09/18 03:41:39;;;;;;;6.47;5.85;;;10.70;99.90;;;;;;6275842;28;20070;-90
2021/09/18 03:44:40;;;;;;;10.07;6.60;;;10.60;99.90;;;;;;6258438;28;20074;-87
2021/09/18 03:47:41;;;;;;;6.85;6.15;;;;;;;;;;6258606;28;20158;-90
2021/09/18 03:50:42;;;;;;;6.75;6.15;;;;;;;;;;6278466;28;20394;-87
2021/09/18 03:53:43;;;;;;;7.95;6.15;;;;;;;;;;6279672;28;20032;-88
2021/09/18 03:56:44;;;;;;;8.07;7.10;;;;;;;;;;6280207;28;20588;-88
2021/09/18 03:59:45;;;;;;;8.95;7.15;;;;;;;;;;6279670;28;20028;-87
2021/09/18 04:02:45;;;;;;;8.35;6.53;;;11.20;99.90;;;;;;6296535;28;20028;-87
2021/09/18 04:05:46;;;;;;;8.38;6.45;;;10.80;99.90;;;;;;6271962;28;20027;-87
2021/09/18 04:08:46;;;;;;;7.53;6.82;;;11.10;99.90;;;;;;6262255;28;20059;-87
2021/09/18 04:11:47;;;;;;;8.52;6.80;;;10.90;99.90;;;;;;6262720;28;20034;-87
2021/09/18 04:14:48;;;;;;;7.20;6.50;;;;;;;;;;6279633;28;20039;-88
2021/09/18 04:17:49;;;;;;;10.13;6.28;;;;;;;;;;6280086;28;20074;-90
2021/09/18 04:20:50;;;;;;;7.03;6.32;;;;;;;;;;6279249;28;20523;-89
2021/09/18 04:23:51;;;;;;;6.95;6.00;;;10.60;99.90;;;;;;6278945;28;20066;-88
2021/09/18 04:26:52;;;;;;;7.75;6.60;;;;;;;;;;6262765;28;20017;-89
2021/09/18 04:29:52;;;;;;;6.97;6.32;;;10.60;99.90;;;;;;6279323;28;20054;-89
2021/09/18 04:32:53;;;;;;;7.60;6.55;;;11.00;99.90;;;;;;6245851;28;20036;-88
2021/09/18 04:35:54;;;;;;;8.65;6.72;;;;;;;;;;6278782;28;20390;-89
2021/09/18 04:38:55;;;;;;;7.70;6.93;;;10.60;99.90;;;;;;6279293;28;20454;-89
2021/09/18 04:41:55;;;;;;;9.05;7.60;;;11.90;99.90;;;;;;6262327;28;20115;-90
2021/09/18 04:44:56;;;;;;;7.53;6.80;;;;;;;;;;6279150;28;20021;-87
2021/09/18 04:47:57;;;;;;;8.48;7.03;;;;;;;;;;6278352;28;20071;-88
2021/09/18 04:50:58;;;;;;;6.18;5.57;;;10.50;99.90;;;;;;6279962;28;20017;-91
2021/09/18 04:53:59;;;;;;;7.18;6.47;;;;;;;;;;6261927;28;20105;-87
2021/09/18 04:57:00;;;;;;;8.90;5.45;;;;;;;;;;6278985;28;20021;-87
2021/09/18 05:00:01;;;;;;;7.47;6.07;;;10.40;99.90;;;;;;6278493;28;20340;-90
2021/09/18 05:03:02;;;;;;;6.80;6.10;;;;;;;;;;6260711;28;20020;-88
2021/09/18 05:06:02;;;;;;;8.63;6.53;;;10.10;99.90;;;;;;6278771;28;20028;-87
2021/09/18 05:09:03;;;;;;;6.40;5.53;;;;;;;;;;6277595;28;20470;-88
2021/09/18 05:12:04;;;;;;;7.88;6.78;;;10.30;99.90;;;;;;6278080;28;20030;-87
2021/09/18 05:15:06;;;;;;;10.82;6.32;;;10.10;99.90;;;;;;6261351;28;20036;-86
2021/09/18 05:18:06;;;;;;;10.83;6.97;;;10.20;99.90;;;;;;6256440;28;20373;-92
2021/09/18 05:21:07;;;;;;;7.53;6.30;;;;;;;;;;6258755;28;20113;-91
2021/09/18 05:24:08;;;;;;;9.52;6.30;;;10.10;99.90;;;;;;6283705;28;20032;-86
2021/09/18 05:27:09;;;;;;;7.93;6.25;;;10.20;99.90;;;;;;6261038;28;20032;-89
2021/09/18 05:30:10;;;;;;;6.57;5.97;;;9.80;99.90;;;;;;6261156;28;20123;-88
2021/09/18 05:33:10;;;;;;;7.57;6.60;;;10.00;99.90;;;;;;6260600;28;20040;-89
2021/09/18 05:36:11;;;;;;;7.80;6.53;;;;;;;;;;6276624;28;20028;-87
2021/09/18 05:39:12;;;;;;;7.60;6.80;;;10.30;99.90;;;;;;6293511;28;20362;-87
2021/09/18 05:42:13;;;;;;;7.60;6.80;;;;;;;;;;6260273;28;20020;-87
2021/09/18 05:45:14;;;;;;;7.40;6.53;;;10.60;99.90;;;;;;6293559;28;20052;-89
2021/09/18 05:48:15;;;;;;;9.73;6.78;;;;;;;;;;6259974;28;20028;-89
2021/09/18 05:51:15;;;;;;;9.65;6.78;;;10.90;99.90;;;;;;6276885;28;20047;-87
2021/09/18 05:54:16;;;;;;;7.82;7.00;;;11.10;99.90;;;;;;6259812;28;20052;-86
2021/09/18 05:57:17;;;;;;;7.35;6.53;;;;;;;;;;6260117;28;20082;-87
2021/09/18 06:00:18;;;;;;;6.85;5.78;;;12.60;99.90;;;;;;6293643;28;20086;-88
2021/09/18 06:03:19;;;;;;;6.88;6.18;;;;;;;;;;6260412;28;20013;-87
2021/09/18 06:06:20;;;;;;;8.20;6.15;;;;;;;;;;6276833;28;20020;-87
2021/09/18 06:09:21;;;;;;;10.25;6.50;;;;;;;;;;6276230;28;20064;-88
2021/09/18 06:12:22;;;;;;;6.28;5.68;;;;;;;;;;6276275;28;20024;-88
2021/09/18 06:15:22;;;;;;;5.85;5.25;;;15.00;99.90;;;;;;6276706;28;20120;-90
2021/09/18 06:18:24;;;;;;;6.40;5.25;;;;;;;;;;6260107;28;20048;-88
2021/09/18 06:21:25;;;;;;;5.75;5.07;;;15.90;99.90;;;;;;6276554;28;20063;-90
2021/09/18 06:24:25;;;;;;;7.80;5.47;;;16.10;99.90;;;;;;6265572;28;20174;-87
2021/09/18 06:27:26;;;;;;;7.13;4.50;;;;;;;;;;6259317;28;20036;-88
2021/09/18 06:30:27;;;;;;;5.47;4.97;;;;;;;;;;6276404;28;20017;-86
2021/09/18 06:33:29;;;;;;;5.43;4.93;;;;;;;;;;6276012;28;20463;-91
2021/09/18 06:36:30;;;;;;;7.22;4.90;;;;;;;;;;6276185;28;20024;-87
2021/09/18 06:39:31;;;;;;;6.00;4.50;;;;;;;;;;6259346;28;20020;-87
2021/09/18 06:42:32;;;;;;;5.13;4.60;;;;;;;;;;6292641;28;20115;-87
2021/09/18 06:45:33;;;;;;;6.60;5.00;;;;;;;;;;6292770;28;20241;-90
2021/09/18 06:48:37;;;;;;;9.15;4.65;;;;;;;;;;6275899;28;20074;-89
2021/09/18 06:51:38;;;;;;;5.57;5.07;;;;;;;;;;6275306;28;20025;-86
2021/09/18 06:54:41;;;;;;;12.13;7.55;;;;;;;;;;6275511;28;20379;-87
2021/09/18 06:57:42;;;;;;;5.32;4.53;;;;;;;;;;6275462;28;20028;-86
2021/09/18 07:00:43;;;;;;;11.57;7.05;;;;;;;;;;6274871;28;20951;-85
2021/09/18 07:03:44;;;;;;;5.15;4.60;;;;;;;;;;6288602;28;20025;-86
2021/09/18 07:06:45;;;;;;;5.07;4.38;;;20.00;99.90;;;;;;6272178;28;20055;-86
2021/09/18 07:09:45;;;;;;;5.20;4.72;;;20.50;99.20;;;;;;6258470;28;20033;-88
2021/09/18 07:12:46;;;;;;;4.70;4.30;;;20.80;97.40;;;;;;6263898;28;20055;-86
2021/09/18 07:15:47;;;;;;;7.07;4.82;;;;;;;;;;6267302;28;20526;-89
2021/09/18 07:18:47;;;;;;;4.90;4.38;;;21.90;99.90;;;;;;6281214;28;20082;-87
2021/09/18 07:21:48;;;;;;;6.35;4.85;;;21.90;95.40;;;;;;6259166;28;20032;-89
2021/09/18 07:24:55;;;;;;;6.95;4.22;;;22.40;99.90;;;;;;6275324;28;20063;-89
2021/09/18 07:27:55;;;;;;;4.90;3.97;;;22.50;99.90;;;;;;6263570;28;20107;-88
2021/09/18 07:30:57;;;;;;;4.85;4.35;;;;;;;;;;6263084;28;20038;-85
2021/09/18 07:34:03;;;;;;;5.88;4.10;;;22.80;93.10;;;;;;6280191;28;20120;-87
2021/09/18 07:37:04;;;;;;;6.13;4.15;;;22.90;99.40;;;;;;6280119;28;20032;-88
2021/09/18 07:40:11;;;;;;;4.57;3.78;;;23.50;98.60;;;;;;6261059;28;20060;-90
2021/09/18 07:43:12;;;;;;;5.75;4.43;;;23.80;98.70;;;;;;6262278;28;20036;-83
2021/09/18 07:46:13;;;;;;;4.13;3.75;;;;;;;;;;6260514;28;20477;-85
2021/09/18 07:49:14;;;;;;;5.95;4.38;;;;;;;;;;6295196;28;20123;-82
2021/09/18 07:52:25;;;;;;;7.55;4.35;;;24.70;94.60;;;;;;6280036;28;20081;-88
2021/09/18 07:56:03;;;;;;;4.40;3.83;;;25.10;85.10;;;;;;6277113;28;20032;-93
2021/09/18 07:59:13;;;;;;;4.65;4.18;;;25.50;99.00;;;;;;6297892;28;20074;-92
2021/09/18 08:02:14;;;;;;;4.38;3.92;;;;;;;;;;6262353;28;20521;-87
2021/09/18 08:05:22;;;;;;;4.77;4.27;;;25.90;92.10;;;;;;6277645;28;20028;-87
2021/09/18 08:12:21;;;;;;;3.22;2.92;;;;;;;;;;6296501;28;20041;-87
2021/09/18 08:15:28;;;;;;;3.88;3.22;;;26.60;69.70;;;;;;6278952;28;20520;-87
2021/09/18 08:22:26;;;;;;;5.18;3.63;;;;;;;;;;6296937;28;20374;-86
2021/09/18 08:37:32;;;;;;;5.38;3.15;;;27.30;61.70;;;;;;6122598;29;20438;-89
2021/09/18 08:40:37;;;;;;;4.20;3.40;;;27.50;62.10;;;;;;6073259;29;20555;-83
2021/09/18 08:43:38;;;;;;;4.05;3.20;;;;;;;;;;6073741;29;20040;-84
2021/09/18 08:46:39;;;;;;;3.30;3.00;;;27.30;79.50;;;;;;6088348;29;20040;-81
2021/09/18 08:49:39;;;;;;;3.30;3.00;;;27.50;62.90;;;;;;6068957;29;20290;-78
2021/09/18 08:52:40;;;;;;;4.27;3.00;;;27.50;62.70;;;;;;6064272;29;20045;-79
2021/09/18 08:55:41;;;;;;;3.47;3.10;;;27.40;61.30;;;;;;6089751;29;20056;-82
2021/09/18 08:58:42;;;;;;;3.20;2.90;;;27.80;61.40;;;;;;6042453;29;20039;-82
2021/09/18 09:01:42;;;;;;;5.00;3.37;;;27.80;61.30;;;;;;6074190;29;20047;-80
2021/09/18 09:04:43;;;;;;;3.53;3.23;;;27.60;60.20;;;;;;6076485;29;20084;-79
2021/09/18 09:08:24;;;;;;;3.90;3.00;;;27.80;61.70;;;;;;6121219;29;20107;-79
2021/09/18 09:11:27;;;;;;;3.30;3.00;;;27.80;59.00;;;;;;6132446;28;20381;-80
2021/09/18 09:14:42;;;;;;;3.58;3.17;;;27.80;59.20;;;;;;6162299;28;20660;-80
2021/09/18 09:17:49;;;;;;;3.38;3.08;;;28.00;59.50;;;;;;6164119;28;20141;-81
2021/09/18 09:20:51;;;;;;;3.28;3.00;;;27.60;60.60;;;;;;6176605;28;20038;-81
2021/09/18 09:24:07;;;;;;;3.85;3.17;;;27.60;59.20;;;;;;6189715;28;20030;-81
2021/09/18 09:27:13;;;;;;;3.88;3.28;;;27.60;58.80;;;;;;6188893;28;20662;-82
2021/09/18 09:30:13;;;;;;;4.50;3.10;;;27.60;59.90;;;;;;6180841;28;20088;-84
2021/09/18 09:33:14;;;;;;;4.03;3.23;;;27.70;59.50;;;;;;6165141;28;20054;-83
2021/09/18 09:36:16;;;;;;;3.27;2.97;;;27.70;59.00;;;;;;6193908;28;20030;-85
2021/09/18 09:39:21;;;;;;;4.13;3.30;;;28.00;73.40;;;;;;6181800;28;20088;-84
2021/09/18 09:42:41;;;;;;;3.25;2.95;;;27.90;57.80;;;;;;6165554;28;20073;-89
2021/09/18 09:45:42;;;;;;;3.47;3.13;;;28.00;58.20;;;;;;6245232;28;20036;-87
2021/09/18 09:57:40;;;;;;;3.90;3.22;;;27.50;58.30;;;;;;6177782;28;20035;-88
2021/09/18 10:00:50;;;;;;;3.88;3.30;;;27.40;86.50;;;;;;6113907;29;20150;-89
2021/09/18 10:03:52;;;;;;;3.60;3.10;;;;;;;;;;6097836;29;20047;-86
2021/09/18 10:06:58;;;;;;;3.85;3.30;;;27.20;64.70;;;;;;6118652;29;20056;-89
2021/09/18 10:10:00;;;;;;;4.68;3.00;;;;;;;;;;6101448;29;20083;-87
2021/09/18 10:13:01;;;;;;;3.65;3.28;;;;;;;;;;6112570;29;20812;-84
2021/09/18 10:16:02;;;;;;;6.78;3.25;;;;;;;;;;6115674;29;20083;-85
2021/09/18 10:19:06;;;;;;;5.35;3.15;;;;;;;;;;6109167;29;20023;-86
2021/09/18 10:25:37;;;;;;;3.92;3.50;;;28.00;64.70;;;;;;6109672;28;20047;-88
2021/09/18 10:28:42;;;;;;;6.07;3.40;;;28.00;75.00;;;;;;6147258;28;20477;-87
2021/09/18 10:31:43;;;;;;;4.55;3.50;;;;;;;;;;6147198;28;20039;-88
2021/09/18 10:34:44;;;;;;;5.65;3.83;;;28.40;65.20;;;;;;6244411;28;20426;-86
2021/09/18 10:37:45;;;;;;;4.40;3.47;;;28.40;78.70;;;;;;6259952;28;20032;-89
2021/09/18 10:40:55;;;;;;;5.00;4.50;;;28.60;69.50;;;;;;6259419;28;20474;-85
2021/09/18 10:44:00;;;;;;;8.60;4.28;;;28.60;67.90;;;;;;6291283;28;20115;-80
2021/09/18 10:47:01;;;;;;;5.40;4.18;;;28.50;67.70;;;;;;6274693;28;20047;-83
2021/09/18 10:50:03;;;;;;;;;;;28.60;67.20;;;;;;6258523;28;20032;-81
2021/09/18 10:53:08;;;;;;;6.55;4.70;;;28.80;67.40;;;;;;6291183;28;19924;-82
2021/09/18 10:56:09;;;;;;;7.00;4.32;;;28.40;68.30;;;;;;6291508;28;20104;-84
2021/09/18 10:59:09;;;;;;;7.70;4.10;;;28.20;68.00;;;;;;6291910;28;20031;-82
2021/09/18 11:02:35;;;;;;;14.20;4.83;;;27.90;68.60;;;;;;6277126;28;20063;-83
2021/09/18 11:05:38;;;;;;;5.50;4.05;;;27.80;69.40;;;;;;6279498;28;20028;-83
2021/09/18 11:08:39;;;;;;;4.50;4.10;;;;;;;;;;6294503;28;20144;-83
2021/09/18 11:11:40;;;;;;;4.65;4.25;;;27.80;71.60;;;;;;6295698;28;20069;-84
2021/09/18 11:14:41;;;;;;;5.13;4.40;;;;;;;;;;6262904;28;20052;-83
2021/09/18 11:17:43;;;;;;;4.90;4.50;;;28.00;68.60;;;;;;6279736;28;20450;-86
2021/09/18 11:20:43;;;;;;;7.05;5.43;;;28.10;70.00;;;;;;6262237;28;20424;-85
2021/09/18 11:23:49;;;;;;;7.67;5.13;;;27.70;84.60;;;;;;6280131;28;20056;-85
2021/09/18 11:26:57;;;;;;;8.15;5.00;;;27.80;71.70;;;;;;6264078;28;20027;-86
2021/09/18 11:29:58;;;;;;;6.72;5.40;;;27.50;71.90;;;;;;6262597;28;20037;-88
2021/09/18 11:32:59;;;;;;;6.30;5.70;;;27.30;73.40;;;;;;6262141;28;20066;-85
2021/09/18 11:36:03;;;;;;;7.57;5.30;;;27.20;71.80;;;;;;6259229;28;20448;-86
2021/09/18 11:46:53;;;;;;;9.85;6.97;;;26.80;89.20;;;;;;6591025;22;20053;-88
2021/09/18 11:49:54;;;;;;;8.55;6.20;;;;;;;;;;6275107;28;20090;-88
2021/09/18 11:53:01;;;;;;;6.05;5.45;;;26.70;85.20;;;;;;6242652;28;20090;-87
2021/09/18 11:56:02;;;;;;;7.10;5.20;;;26.70;73.80;;;;;;6249064;28;20029;-88
2021/09/18 11:59:10;;;;;;;5.65;5.05;;;26.80;74.10;;;;;;6222849;28;20514;-85
2021/09/18 12:02:10;;;;;;;6.50;4.82;;;26.30;75.00;;;;;;6224972;28;20540;-84
2021/09/18 12:05:15;;;;;;;7.40;5.17;;;26.30;75.70;;;;;;6238096;28;20025;-85
2021/09/18 12:08:19;;;;;;;5.68;4.78;;;26.10;74.50;;;;;;6228859;28;20037;-85
2021/09/18 12:11:19;;;;;;;5.70;5.18;;;26.20;76.50;;;;;;6236223;28;20021;-86
2021/09/18 12:14:35;;;;;;;8.07;4.50;;;26.00;75.70;;;;;;6232455;28;20088;-86
2021/09/18 12:17:40;;;;;;;11.38;5.25;;;25.90;76.10;;;;;;6252972;28;20072;-84
2021/09/18 12:20:41;;;;;;;9.68;4.90;;;25.90;76.70;;;;;;6234445;28;20032;-86
2021/09/18 12:23:49;;;;;;;23.10;5.27;;;25.70;73.60;;;;;;6258780;28;20029;-87
2021/09/18 12:26:50;;;;;;;9.05;4.50;;;25.60;74.00;;;;;;6264027;28;20108;-92
2021/09/18 12:30:00;;;;;;;24.30;4.73;;;25.60;90.50;;;;;;6230689;28;20447;-90
2021/09/18 12:33:02;;;;;;;4.72;4.32;;;25.60;75.50;;;;;;6224482;28;20051;-89
2021/09/18 12:36:14;;;;;;;4.78;4.18;;;25.60;76.40;;;;;;6246285;28;20398;-89
2021/09/18 12:39:15;;;;;;;7.40;4.20;;;;;;;;;;6232425;28;20021;-88
2021/09/18 12:42:16;;;;;;;5.20;4.20;;;25.50;76.20;;;;;;6264325;28;20275;-89
2021/09/18 12:45:24;;;;;;;6.63;5.00;;;25.50;77.90;;;;;;6221503;28;21025;-89
2021/09/18 12:48:25;;;;;;;4.68;4.28;;;25.50;79.00;;;;;;6233832;28;20029;-87
2021/09/18 12:51:26;;;;;;;8.77;5.03;;;25.50;80.30;;;;;;6230343;28;20025;-89
2021/09/18 12:54:27;;;;;;;5.55;4.57;;;25.50;81.00;;;;;;6226534;28;20029;-89
2021/09/18 12:57:31;;;;;;;5.57;4.60;;;25.40;78.20;;;;;;6253548;28;20039;-90
2021/09/18 13:00:32;;;;;;;6.20;4.68;;;25.70;78.40;;;;;;6235185;28;20017;-90
2021/09/18 13:03:33;;;;;;;4.90;4.37;;;25.30;78.00;;;;;;6235611;28;20039;-89
2021/09/18 13:06:35;;;;;;;5.13;4.53;;;;;;;;;;6236437;28;20075;-90
2021/09/18 13:09:40;;;;;;;4.63;4.10;;;25.40;97.90;;;;;;6254954;28;20024;-89
2021/09/18 13:12:41;;;;;;;4.88;4.38;;;;;;;;;;6249230;28;20037;-87
2021/09/18 13:16:08;;;;;;;4.60;4.20;;;25.40;97.00;;;;;;6246370;28;20057;-91
2021/09/18 13:19:10;;;;;;;5.53;3.90;;;25.40;92.40;;;;;;6244218;28;20051;-86
2021/09/18 13:22:12;;;;;;;5.70;4.32;;;25.30;79.70;;;;;;6251426;28;20025;-87
2021/09/18 13:25:14;;;;;;;5.05;4.60;;;25.30;78.40;;;;;;6219757;28;20344;-84
2021/09/18 13:28:15;;;;;;;7.57;4.75;;;;;;;;;;6227475;28;20039;-85
2021/09/18 13:31:16;;;;;;;5.65;5.07;;;25.30;77.70;;;;;;6270459;28;20051;-89
2021/09/18 13:34:32;;;;;;;4.93;4.43;;;25.30;90.60;;;;;;6232260;28;20466;-89
2021/09/18 13:37:33;;;;;;;5.22;4.05;;;;;;;;;;6245466;28;20017;-86
2021/09/18 13:40:34;;;;;;;6.28;4.57;;;25.30;77.80;;;;;;6242830;28;20112;-85
2021/09/18 13:43:35;;;;;;;4.72;4.22;;;25.00;97.20;;;;;;6257412;28;20510;-86
2021/09/18 13:46:36;;;;;;;11.40;4.50;;;25.20;96.70;;;;;;6226433;28;20055;-84
2021/09/18 13:49:48;;;;;;;4.60;4.20;;;;;;;;;;6226421;28;20031;-85
2021/09/18 13:52:50;;;;;;;29.25;5.57;;;;;;;;;;6240774;28;20132;-86
2021/09/18 13:55:51;;;;;;;4.57;3.90;;;;;;;;;;6244511;28;20062;-80
2021/09/18 13:58:52;;;;;;;5.15;4.40;;;;;;;;;;6259512;28;20455;-82
2021/09/18 14:01:53;;;;;;;5.20;4.70;;;;;;;;;;6259594;28;20025;-82
2021/09/18 14:04:54;;;;;;;4.90;4.40;;;;;;;;;;6279977;28;20020;-83
2021/09/18 14:07:55;;;;;;;4.60;4.20;;;24.60;99.30;;;;;;6280198;28;20025;-83
2021/09/18 14:10:55;;;;;;;5.23;4.73;;;24.60;92.20;;;;;;6246362;28;20028;-84
2021/09/18 14:13:56;;;;;;;8.07;4.60;;;24.60;88.20;;;;;;6264376;28;20036;-85
2021/09/18 14:16:57;;;;;;;5.67;5.00;;;24.80;83.90;;;;;;6220556;28;20035;-87
2021/09/18 14:19:58;;;;;;;;;;;24.80;81.10;;;;;;6221130;28;20035;-84
2021/09/18 14:22:59;;;;;;;6.88;4.90;;;24.80;80.30;;;;;;6240924;28;19987;-89
2021/09/18 14:25:59;;;;;;;6.20;4.60;;;25.30;82.70;;;;;;6221544;28;20465;-82
2021/09/18 14:29:01;;;;;;;5.00;4.03;;;;;;;;;;6228355;28;20071;-87
2021/09/18 14:32:02;;;;;;;5.43;4.70;;;24.80;83.50;;;;;;6243031;28;20040;-84
2021/09/18 14:35:03;;;;;;;6.93;4.57;;;24.70;85.40;;;;;;6251554;28;20071;-83
2021/09/18 14:38:03;;;;;;;4.93;4.43;;;24.60;94.40;;;;;;6220178;28;20017;-83
2021/09/18 14:41:13;;;;;;;7.20;4.97;;;24.60;84.80;;;;;;6220718;28;20733;-84
2021/09/18 14:44:13;;;;;;;5.05;4.55;;;24.60;87.70;;;;;;6219320;28;20493;-84
2021/09/18 14:47:14;;;;;;;5.97;4.47;;;24.60;85.50;;;;;;6224235;28;20028;-83
2021/09/18 14:50:14;;;;;;;6.67;4.50;;;24.50;82.90;;;;;;6230853;28;20443;-86
2021/09/18 14:53:15;;;;;;;4.53;4.13;;;24.50;84.60;;;;;;6237587;28;20036;-84
2021/09/18 14:56:16;;;;;;;4.60;4.20;;;24.60;83.80;;;;;;6226046;28;20025;-84
2021/09/18 14:59:16;;;;;;;7.00;4.30;;;24.40;85.50;;;;;;6235669;28;20382;-84
2021/09/18 15:02:18;;;;;;;4.57;4.03;;;24.30;84.10;;;;;;6216658;28;20043;-83
2021/09/18 15:05:18;;;;;;;5.93;4.55;;;24.40;85.00;;;;;;6234177;28;20067;-84
2021/09/18 15:08:22;;;;;;;5.40;4.87;;;;;;;;;;6216692;28;20401;-85
2021/09/18 15:11:23;;;;;;;5.75;4.40;;;24.10;84.90;;;;;;6253657;28;20033;-85
2021/09/18 15:14:24;;;;;;;4.60;4.20;;;24.10;85.60;;;;;;6220284;28;20052;-86
2021/09/18 15:17:25;;;;;;;5.15;4.30;;;;;;;;;;6220967;28;20119;-87
2021/09/18 15:20:26;;;;;;;4.60;4.20;;;;;;;;;;6253044;28;20032;-86
2021/09/18 15:23:27;;;;;;;5.27;4.20;;;;;;;;;;6249977;28;20016;-86
2021/09/18 15:26:28;;;;;;;5.97;4.07;;;23.90;84.90;;;;;;6269477;28;20028;-86
2021/09/18 15:29:35;;;;;;;7.60;4.47;;;23.60;85.70;;;;;;6230349;28;20100;-88
2021/09/18 15:32:37;;;;;;;4.68;3.95;;;24.60;91.00;;;;;;6240595;28;20024;-85
2021/09/18 15:35:37;;;;;;;4.13;3.70;;;23.50;87.70;;;;;;6261276;28;20408;-86
2021/09/18 15:38:38;;;;;;;4.32;3.92;;;23.50;87.80;;;;;;6219623;28;20037;-85
2021/09/18 15:41:38;;;;;;;5.73;4.10;;;23.50;94.10;;;;;;6221700;28;20027;-84
2021/09/18 15:44:39;;;;;;;4.40;4.00;;;23.50;87.30;;;;;;6232650;28;20053;-83
2021/09/18 15:47:40;;;;;;;4.85;3.75;;;23.40;87.40;;;;;;6241914;28;20037;-85
2021/09/18 15:50:40;;;;;;;4.20;3.80;;;23.30;87.50;;;;;;6245129;28;20097;-84
2021/09/18 15:53:41;;;;;;;5.10;3.90;;;23.20;87.40;;;;;;6240719;28;20183;-86
2021/09/18 15:56:42;;;;;;;5.03;4.57;;;;;;;;;;6239083;28;20021;-87
2021/09/18 16:00:05;;;;;;;;;;;;;;;;;;;;;
2021/09/18 16:03:32;;;;;;;4.55;4.10;;;22.80;87.00;;;;;;6271587;28;20103;-85
2021/09/18 16:06:33;;;;;;;4.68;4.18;;;;;;;;;;6245263;28;20029;-88
2021/09/18 16:09:34;;;;;;;4.50;4.10;;;22.40;89.00;;;;;;6262656;28;20650;-86
2021/09/18 16:12:38;;;;;;;13.70;4.55;;;22.10;98.40;;;;;;6221228;28;20035;-90
2021/09/18 16:15:38;;;;;;;4.88;4.13;;;25.00;91.60;;;;;;6223378;28;20540;-85
2021/09/18 16:18:39;;;;;;;4.30;3.90;;;22.10;90.60;;;;;;6249772;28;20025;-86
2021/09/18 16:21:44;;;;;;;4.45;4.05;;;;;;;;;;6247726;28;20733;-88
2021/09/18 16:24:45;;;;;;;4.45;3.95;;;;;;;;;;6249759;28;20017;-88
2021/09/18 16:27:46;;;;;;;5.40;3.80;;;21.80;99.00;;;;;;6247158;28;20025;-85
2021/09/18 16:30:46;;;;;;;6.77;4.37;;;21.80;92.10;;;;;;6222255;28;20366;-86
2021/09/18 16:33:48;;;;;;;8.20;4.07;;;;;;;;;;6221958;28;20328;-88
2021/09/18 16:36:49;;;;;;;5.00;3.97;;;;;;;;;;6265014;28;20047;-88
2021/09/18 16:39:49;;;;;;;4.47;3.70;;;22.20;92.40;;;;;;6249858;28;20019;-80
2021/09/18 16:42:50;;;;;;;8.50;4.60;;;21.70;93.00;;;;;;6293970;28;20370;-80
2021/09/18 16:45:51;;;;;;;5.13;4.60;;;21.70;93.50;;;;;;6260114;28;20052;-84
2021/09/18 16:48:51;;;;;;;6.03;4.65;;;21.70;94.20;;;;;;6265643;28;20447;-80
2021/09/18 16:51:52;;;;;;;7.30;4.70;;;21.60;94.60;;;;;;6253078;28;20027;-79
2021/09/18 16:54:53;;;;;;;6.63;4.75;;;21.60;94.70;;;;;;6228240;28;20127;-80
2021/09/18 16:57:54;;;;;;;6.67;4.30;;;21.50;95.00;;;;;;6269695;28;20125;-81
2021/09/18 17:00:54;;;;;;;8.10;5.03;;;21.50;95.50;;;;;;6229837;28;20029;-82
2021/09/18 17:03:55;;;;;;;4.60;4.20;;;21.30;95.90;;;;;;6219228;28;20115;-86
2021/09/18 17:06:56;;;;;;;5.97;4.68;;;21.30;96.20;;;;;;6253462;28;20057;-83
2021/09/18 17:09:56;;;;;;;5.20;4.55;;;21.10;96.50;;;;;;6236278;28;20021;-87
2021/09/18 17:12:57;;;;;;;7.40;4.72;;;20.80;96.30;;;;;;6219815;28;20021;-89
2021/09/18 17:16:01;;;;;;;5.20;4.80;;;;;;;;;;6242385;28;20394;-86
2021/09/18 17:19:03;;;;;;;4.78;4.38;;;20.90;96.80;;;;;;6264190;28;20074;-81
2021/09/18 17:22:05;;;;;;;6.25;4.72;;;;;;;;;;6253475;28;20013;-81